Time;durP1;ratioP1;P1;durP2;ratioP2;P2;SDS_P1;SDS_P2;PMS_P1;PMS_P2;Temp;Humidity;BMP_temperature;BMP_pressure;BME280_temperature;BME280_humidity;BME280_pressure;Samples;Min_cycle;Max_cycle;Signal;HPM_P1;HPM_P2
2022/08/15 00:02:25;;;;;;;2.77;0.87;;;;;;;24.27;49.77;94414.06;5059742;28;20455;-74
2022/08/15 00:05:11;;;;;;;1.73;1.63;;;;;;;24.48;49.87;94433.22;5047336;28;20596;-71
2022/08/15 00:07:39;;;;;;;0.37;0.37;;;;;;;23.78;51.33;94434.41;5064724;28;20557;-73
2022/08/15 00:10:17;;;;;;;0.40;0.40;;;;;;;24.15;50.62;94432.94;5037886;28;20205;-71
2022/08/15 00:13:24;;;;;;;0.57;0.50;;;;;;;23.54;51.39;94434.63;5052168;28;20212;-72
2022/08/15 00:15:56;;;;;;;3.67;0.57;;;;;;;23.63;51.59;94432.56;5037750;28;20457;-65
2022/08/15 00:18:26;;;;;;;0.30;0.30;;;;;;;23.41;52.00;94425.16;5064029;28;20681;-67
2022/08/15 00:20:54;;;;;;;0.67;0.67;;;;;;;23.44;52.53;94435.16;5067359;28;20446;-72
2022/08/15 00:23:26;;;;;;;0.30;0.30;;;;;;;23.68;51.70;94432.28;5062804;28;20588;-74
2022/08/15 00:26:00;;;;;;;1.83;0.50;;;;;;;23.41;52.06;94430.50;5053803;28;20496;-72
2022/08/15 00:28:46;;;;;;;0.83;0.63;;;;;;;23.66;51.35;94426.50;5065968;28;20445;-70
2022/08/15 00:31:24;;;;;;;0.17;0.17;;;;;;;23.47;51.77;94419.19;5075402;28;20529;-66
2022/08/15 00:34:15;;;;;;;1.00;1.00;;;;;;;23.18;52.63;94422.28;5067957;28;20262;-75
2022/08/15 00:37:03;;;;;;;1.07;0.97;;;;;;;23.07;53.24;94416.69;5054310;28;20441;-70
2022/08/15 00:39:34;;;;;;;0.10;0.10;;;;;;;23.34;52.37;94425.00;5043217;28;20689;-67
2022/08/15 00:42:08;;;;;;;0.80;0.70;;;;;;;23.19;53.21;94433.75;5071485;28;20477;-71
2022/08/15 00:44:46;;;;;;;0.83;0.70;;;;;;;23.38;52.61;94425.84;5069864;28;20482;-67
2022/08/15 00:47:33;;;;;;;0.60;0.60;;;;;;;23.39;52.48;94428.19;5071273;28;20199;-71
2022/08/15 00:50:08;;;;;;;0.77;0.67;;;;;;;23.73;51.51;94434.66;5059694;28;20950;-72
2022/08/15 00:52:56;;;;;;;0.47;0.47;;;;;;;23.59;51.46;94429.00;5046249;28;20458;-69
2022/08/15 00:55:27;;;;;;;0.93;0.83;;;;;;;23.85;51.11;94429.19;5059537;28;20706;-72
2022/08/15 00:57:57;;;;;;;0.67;0.67;;;;;;;23.85;50.64;94413.13;5054352;28;20552;-70
2022/08/15 01:00:45;;;;;;;0.20;0.20;;;;;;;24.10;50.70;94423.28;5057204;28;20257;-66
2022/08/15 01:03:20;;;;;;;1.13;1.13;;;;;;;24.05;50.63;94417.41;5043791;28;20530;-70
2022/08/15 01:05:55;;;;;;;0.93;0.87;;;;;;;24.30;49.78;94413.38;5031224;28;20515;-70
2022/08/15 01:08:28;;;;;;;0.53;0.53;;;;;;;24.16;49.88;94410.38;5058233;28;20527;-70
2022/08/15 01:11:44;;;;;;;0.80;0.80;;;;;;;23.67;50.70;94410.09;5054453;28;20204;-72
2022/08/15 01:14:12;;;;;;;0.60;0.60;;;;;;;23.96;50.08;94408.78;5060603;28;20207;-70
2022/08/15 01:16:59;;;;;;;0.20;0.20;;;;;;;23.52;51.32;94410.13;5042462;28;20444;-75
2022/08/15 01:19:34;;;;;;;0.53;0.53;;;;;;;23.94;50.39;94408.41;5071103;28;20456;-72
2022/08/15 01:22:36;;;;;;;1.30;0.70;;;;;;;23.73;50.81;94410.59;5055621;28;20210;-72
2022/08/15 01:25:19;;;;;;;0.40;0.40;;;;;;;23.96;50.47;94414.94;5052513;28;20238;-72
2022/08/15 01:28:16;;;;;;;0.20;0.20;;;;;;;24.36;49.33;94406.59;5054901;28;20199;-73
2022/08/15 01:31:00;;;;;;;0.33;0.33;;;;;;;24.18;49.62;94405.47;5061204;28;20585;-72
2022/08/15 01:33:36;;;;;;;0.17;0.17;;;;;;;24.27;49.45;94418.66;5058943;28;20294;-72
2022/08/15 01:36:08;;;;;;;0.43;0.43;;;;;;;23.87;50.03;94411.69;5065793;28;20474;-73
2022/08/15 01:39:10;;;;;;;0.77;0.77;;;;;;;23.96;50.03;94414.16;5066283;28;20443;-72
2022/08/15 01:42:18;;;;;;;0.43;0.43;;;;;;;23.86;50.26;94410.13;5057803;28;20306;-77
2022/08/15 01:44:54;;;;;;;0.37;0.37;;;;;;;23.70;50.74;94416.66;5061124;28;20470;-68
2022/08/15 01:47:37;;;;;;;0.70;0.70;;;;;;;23.75;50.51;94417.16;5043098;28;20204;-73
2022/08/15 01:50:17;;;;;;;1.20;1.10;;;;;;;23.61;50.80;94416.06;5049222;28;20318;-73
2022/08/15 01:53:09;;;;;;;0.90;0.90;;;;;;;23.69;50.76;94421.22;5065530;28;20447;-71
2022/08/15 01:56:01;;;;;;;0.83;0.67;;;;;;;23.20;52.10;94412.03;5058271;28;20462;-68
2022/08/15 01:58:48;;;;;;;1.07;1.07;;;;;;;23.08;52.30;94410.22;5063371;28;20543;-74
2022/08/15 02:01:37;;;;;;;0.63;0.63;;;;;;;23.60;51.14;94406.47;5045093;28;20442;-69
2022/08/15 02:04:12;;;;;;;1.70;1.37;;;;;;;23.42;51.46;94403.41;5051771;28;20586;-69
2022/08/15 02:06:53;;;;;;;0.30;0.30;;;;;;;23.39;51.42;94401.44;5049601;28;20443;-70
2022/08/15 02:09:26;;;;;;;0.80;0.80;;;;;;;23.14;52.31;94397.38;5068594;28;20450;-73
2022/08/15 02:12:08;;;;;;;2.30;2.13;;;;;;;23.99;50.23;94392.06;5081116;28;20803;-71
2022/08/15 02:14:58;;;;;;;0.50;0.50;;;;;;;23.87;50.32;94400.97;5041175;28;20205;-62
2022/08/15 02:17:26;;;;;;;1.23;0.97;;;;;;;24.12;49.72;94406.09;5064729;28;21014;-74
2022/08/15 02:20:00;;;;;;;0.47;0.47;;;;;;;23.98;49.83;94401.19;5058854;28;20860;-66
2022/08/15 02:22:47;;;;;;;0.40;0.40;;;;;;;24.02;49.64;94410.09;5050643;28;20968;-73
2022/08/15 02:25:14;;;;;;;0.20;0.20;;;;;;;23.97;50.06;94416.50;5065609;28;20251;-69
2022/08/15 02:27:53;;;;;;;0.83;0.83;;;;;;;24.03;49.56;94415.09;5057963;28;20439;-68
2022/08/15 02:30:23;;;;;;;0.53;0.53;;;;;;;23.94;50.07;94400.38;5041872;28;20212;-74
2022/08/15 02:33:03;;;;;;;0.87;0.73;;;;;;;23.96;49.36;94414.94;5048096;28;20210;-68
2022/08/15 02:35:32;;;;;;;0.50;0.50;;;;;;;24.00;49.43;94413.13;5065177;28;20868;-73
2022/08/15 02:38:05;;;;;;;0.50;0.50;;;;;;;24.13;49.19;94418.34;5053807;28;20230;-69
2022/08/15 02:40:46;;;;;;;1.43;1.33;;;;;;;24.21;48.87;94423.50;5068725;28;20261;-71
2022/08/15 02:43:20;;;;;;;0.30;0.30;;;;;;;23.76;49.83;94425.94;5052222;28;20210;-71
2022/08/15 02:45:49;;;;;;;1.80;1.50;;;;;;;23.72;50.18;94438.50;5048858;28;20483;-71
2022/08/15 02:48:41;;;;;;;2.37;1.27;;;;;;;23.65;50.47;94435.66;5032674;28;20260;-71
2022/08/15 02:51:35;;;;;;;0.97;0.97;;;;;;;23.32;50.99;94437.94;5052584;28;20450;-75
2022/08/15 02:54:26;;;;;;;0.40;0.40;;;;;;;23.31;51.48;94437.16;5055376;28;20219;-70
2022/08/15 02:57:08;;;;;;;0.80;0.80;;;;;;;23.42;51.23;94440.06;5068122;28;20203;-73
2022/08/15 02:59:40;;;;;;;0.70;0.70;;;;;;;23.29;51.59;94449.25;5045480;28;20587;-67
2022/08/15 03:02:16;;;;;;;1.63;1.33;;;;;;;23.56;50.55;94443.06;5034585;28;20439;-71
2022/08/15 03:04:59;;;;;;;0.73;0.73;;;;;;;23.40;51.27;94444.97;5064620;28;21078;-76
2022/08/15 03:07:28;;;;;;;0.57;0.57;;;;;;;23.46;51.04;94448.94;5061851;28;20193;-70
2022/08/15 03:09:55;;;;;;;0.67;0.67;;;;;;;23.33;51.44;94442.94;5060096;28;20570;-69
2022/08/15 03:12:28;;;;;;;0.77;0.77;;;;;;;23.24;51.82;94453.00;5053409;28;20289;-72
2022/08/15 03:15:01;;;;;;;0.93;0.73;;;;;;;23.35;51.08;94454.06;5044555;28;20977;-72
2022/08/15 03:17:31;;;;;;;0.87;0.87;;;;;;;23.31;50.68;94450.50;5061003;28;20486;-75
2022/08/15 03:20:05;;;;;;;0.50;0.50;;;;;;;23.16;51.51;94461.19;5064861;28;20208;-70
2022/08/15 03:22:47;;;;;;;1.17;1.13;;;;;;;23.42;51.06;94467.59;5062132;28;20207;-73
2022/08/15 03:25:23;;;;;;;1.20;1.10;;;;;;;23.63;50.80;94464.66;5061188;28;20592;-71
2022/08/15 03:27:59;;;;;;;0.23;0.23;;;;;;;23.42;51.22;94469.47;5069716;28;20442;-71
2022/08/15 03:30:30;;;;;;;0.50;0.50;;;;;;;23.19;51.97;94471.19;5068259;28;20457;-70
2022/08/15 03:32:59;;;;;;;0.40;0.40;;;;;;;23.36;51.18;94470.84;5039588;28;20835;-74
2022/08/15 03:35:39;;;;;;;1.00;0.97;;;;;;;23.35;51.47;94470.09;5055288;28;20196;-74
2022/08/15 03:38:07;;;;;;;1.50;1.40;;;;;;;23.51;51.05;94476.22;5048587;28;20478;-71
2022/08/15 03:40:39;;;;;;;1.43;1.33;;;;;;;23.63;50.84;94483.38;5047951;28;20200;-70
2022/08/15 03:43:15;;;;;;;0.60;0.60;;;;;;;23.54;51.10;94488.13;5042482;28;20463;-70
2022/08/15 03:45:50;;;;;;;1.33;1.17;;;;;;;23.46;50.88;94481.03;5042056;28;21085;-69
2022/08/15 03:48:29;;;;;;;0.70;0.70;;;;;;;23.47;51.35;94471.88;5047975;28;20558;-76
2022/08/15 03:50:59;;;;;;;1.37;1.27;;;;;;;23.46;51.11;94470.34;5058070;28;20452;-66
2022/08/15 03:53:36;;;;;;;0.83;0.83;;;;;;;23.71;50.06;94461.00;5075339;28;20213;-73
2022/08/15 03:56:16;;;;;;;0.70;0.70;;;;;;;23.91;49.58;94467.94;5052583;28;20444;-74
2022/08/15 03:58:45;;;;;;;1.50;1.40;;;;;;;24.10;49.20;94478.72;5060218;28;20448;-71
2022/08/15 04:01:18;;;;;;;0.30;0.30;;;;;;;23.83;49.54;94479.63;5059369;28;20482;-69
2022/08/15 04:03:54;;;;;;;1.40;1.30;;;;;;;23.54;50.34;94482.78;5053759;28;20204;-68
2022/08/15 04:06:29;;;;;;;3.90;2.03;;;;;;;23.74;49.78;94476.38;5053031;28;20474;-70
2022/08/15 04:08:59;;;;;;;2.23;1.43;;;;;;;23.88;49.57;94492.75;5044902;28;20447;-68
2022/08/15 04:11:44;;;;;;;0.47;0.47;;;;;;;23.46;50.63;94484.50;5045653;28;20966;-69
2022/08/15 04:14:18;;;;;;;1.50;0.50;;;;;;;23.55;50.37;94484.31;5047831;28;20299;-71
2022/08/15 04:17:03;;;;;;;1.03;1.03;;;;;;;23.85;49.95;94496.09;5061359;28;20515;-72
2022/08/15 04:19:46;;;;;;;0.70;0.70;;;;;;;23.84;49.59;94492.66;5071432;28;20548;-69
2022/08/15 04:22:35;;;;;;;1.20;1.13;;;;;;;23.75;50.08;94483.25;5088102;28;20987;-69
2022/08/15 04:25:27;;;;;;;0.30;0.30;;;;;;;24.08;49.45;94486.34;5040559;28;20586;-77
2022/08/15 04:28:17;;;;;;;1.33;1.23;;;;;;;23.85;50.22;94485.38;5061867;28;20529;-65
2022/08/15 04:31:08;;;;;;;1.60;1.50;;;;;;;24.05;49.43;94482.44;5054262;28;20447;-74
2022/08/15 04:33:41;;;;;;;2.27;2.07;;;;;;;23.98;49.85;94473.44;5068294;28;20447;-75
2022/08/15 04:36:28;;;;;;;3.70;1.67;;;;;;;23.69;50.28;94473.94;5076908;28;20223;-69
2022/08/15 04:39:01;;;;;;;0.97;0.97;;;;;;;23.64;50.71;94474.22;5074654;28;20549;-69
2022/08/15 04:41:33;;;;;;;2.27;1.90;;;;;;;23.48;51.25;94473.44;5055532;28;21009;-71
2022/08/15 04:44:07;;;;;;;0.80;0.80;;;;;;;23.61;50.40;94480.25;5063465;28;20477;-68
2022/08/15 04:46:46;;;;;;;1.43;1.30;;;;;;;24.26;49.21;94481.34;5076572;28;20454;-72
2022/08/15 04:49:13;;;;;;;1.60;1.50;;;;;;;23.90;50.39;94479.78;5066261;28;20834;-71
2022/08/15 04:51:44;;;;;;;4.07;1.23;;;;;;;24.21;49.36;94471.72;5043875;28;20981;-72
2022/08/15 04:54:12;;;;;;;2.30;1.70;;;;;;;24.77;48.50;94488.94;5038429;28;20439;-73
2022/08/15 04:56:45;;;;;;;1.80;1.70;;;;;;;24.78;48.23;94487.78;5053601;28;20997;-72
2022/08/15 04:59:20;;;;;;;1.30;1.20;;;;;;;24.65;48.79;94483.69;5050178;28;20442;-68
2022/08/15 05:02:11;;;;;;;1.60;1.50;;;;;;;24.39;49.85;94486.25;5045316;28;20969;-73
2022/08/15 05:04:59;;;;;;;2.17;2.00;;;;;;;24.13;49.75;94472.66;5038448;28;20220;-74
2022/08/15 05:07:26;;;;;;;2.70;1.77;;;;;;;24.71;49.08;94486.88;5066477;28;20461;-68
2022/08/15 05:09:57;;;;;;;1.90;1.80;;;;;;;24.97;48.49;94487.78;5062721;28;20619;-70
2022/08/15 05:12:39;;;;;;;2.50;2.30;;;;;;;23.84;50.38;94481.19;5059274;28;20655;-72
2022/08/15 05:15:11;;;;;;;3.30;2.33;;;;;;;24.37;49.72;94485.81;5045016;28;20441;-70
2022/08/15 05:17:41;;;;;;;0.70;0.70;;;;;;;25.05;48.51;94469.94;5052055;28;20469;-69
2022/08/15 05:20:27;;;;;;;0.90;0.90;;;;;;;24.88;48.63;94473.06;5080316;28;20234;-73
2022/08/15 05:23:06;;;;;;;1.13;1.13;;;;;;;24.98;48.41;94488.56;5056882;28;20199;-76
2022/08/15 05:25:45;;;;;;;2.13;1.93;;;;;;;24.61;49.20;94482.84;5053430;28;20235;-78
2022/08/15 05:28:15;;;;;;;1.67;1.57;;;;;;;25.01;48.27;94477.91;5075026;28;20214;-72
2022/08/15 05:31:05;;;;;;;2.93;1.70;;;;;;;25.48;47.71;94460.72;5069598;28;20297;-78
2022/08/15 05:33:45;;;;;;;2.63;2.43;;;;;;;25.17;47.92;94472.44;5067875;28;20203;-75
2022/08/15 05:36:33;;;;;;;3.60;2.30;;;;;;;25.29;47.68;94466.13;5043298;28;20253;-80
2022/08/15 05:39:16;;;;;;;1.53;1.27;;;;;;;25.39;48.03;94476.28;5056244;28;20304;-70
2022/08/15 05:42:12;;;;;;;0.97;0.97;;;;;;;25.44;47.79;94481.31;5053688;28;20287;-66
2022/08/15 05:44:54;;;;;;;3.27;2.30;;;;;;;25.65;47.58;94476.31;5081186;28;20308;-66
2022/08/15 05:47:38;;;;;;;2.07;1.30;;;;;;;25.37;48.49;94486.53;5063128;28;20920;-66
2022/08/15 05:50:29;;;;;;;1.83;1.70;;;;;;;25.72;47.88;94479.88;5041213;28;20983;-66
2022/08/15 05:53:25;;;;;;;0.93;0.93;;;;;;;25.39;48.31;94489.69;5040563;28;20224;-68
2022/08/15 05:56:10;;;;;;;2.43;2.23;;;;;;;25.19;49.09;94486.25;5038288;28;20204;-66
2022/08/15 05:58:53;;;;;;;0.93;0.93;;;;;;;25.34;48.40;94489.97;5048345;28;20208;-67
2022/08/15 06:01:41;;;;;;;2.30;2.10;;;;;;;25.58;48.04;94489.63;5065681;28;20278;-65
2022/08/15 06:05:01;;;;;;;0.77;0.77;;;;;;;25.65;48.34;94493.19;5063710;28;20207;-67
2022/08/15 06:07:28;;;;;;;1.77;1.37;;;;;;;25.91;47.72;94479.78;5064310;28;20223;-66
2022/08/15 06:10:25;;;;;;;1.73;1.63;;;;;;;25.18;49.30;94491.97;5050253;28;20287;-67
2022/08/15 06:13:13;;;;;;;1.70;1.53;;;;;;;25.52;48.70;94491.06;5049928;28;20233;-65
2022/08/15 06:16:16;;;;;;;1.30;1.20;;;;;;;25.94;46.98;94489.81;5064935;28;20573;-67
2022/08/15 06:19:15;;;;;;;0.93;0.93;;;;;;;25.48;48.44;94487.53;5062558;28;20192;-66
2022/08/15 06:22:15;;;;;;;0.93;0.93;;;;;;;25.71;48.08;94489.06;5076258;28;20588;-67
2022/08/15 06:25:12;;;;;;;0.73;0.63;;;;;;;25.73;47.88;94484.09;5060691;28;20202;-71
2022/08/15 06:27:58;;;;;;;1.57;1.47;;;;;;;25.99;47.76;94484.13;5054432;28;20630;-67
2022/08/15 06:30:50;;;;;;;1.10;1.00;;;;;;;26.15;47.37;94485.91;5055517;28;20592;-67
2022/08/15 06:33:33;;;;;;;3.73;2.50;;;;;;;26.26;47.15;94490.28;5059768;28;20590;-67
2022/08/15 06:36:42;;;;;;;1.57;1.33;;;;;;;26.32;46.78;94488.81;5062644;28;20188;-66
2022/08/15 06:39:09;;;;;;;2.27;1.27;;;;;;;26.16;47.30;94496.28;5064149;28;20207;-66
2022/08/15 06:41:52;;;;;;;3.97;2.37;;;;;;;25.96;46.76;94486.75;5043419;28;20275;-67
2022/08/15 06:44:51;;;;;;;1.23;1.20;;;;;;;25.73;46.49;94488.72;5068028;28;20895;-66
2022/08/15 06:47:22;;;;;;;1.57;1.47;;;;;;;24.90;48.21;94495.69;5070021;28;20208;-67
2022/08/15 06:49:56;;;;;;;7.10;2.50;;;;;;;25.49;46.52;94505.19;5030700;28;20570;-66
2022/08/15 06:52:27;;;;;;;2.00;1.07;;;;;;;25.60;46.67;94500.78;5040873;28;20590;-66
2022/08/15 06:54:58;;;;;;;2.13;1.33;;;;;;;25.82;46.03;94503.41;5061024;28;20204;-68
2022/08/15 06:58:05;;;;;;;1.17;1.17;;;;;;;25.74;46.34;94495.63;5052661;28;20667;-66
2022/08/15 07:01:01;;;;;;;1.47;1.27;;;;;;;25.91;45.85;94511.25;5055843;28;20192;-67
2022/08/15 07:03:51;;;;;;;2.20;1.83;;;;;;;25.92;46.16;94507.41;5041163;28;20201;-66
2022/08/15 07:07:00;;;;;;;1.90;1.80;;;;;;;25.74;46.65;94514.41;5045657;28;20339;-65
2022/08/15 07:09:43;;;;;;;1.60;1.50;;;;;;;26.23;45.81;94512.50;5048383;28;20207;-65
2022/08/15 07:12:34;;;;;;;3.43;3.17;;;;;;;25.65;46.19;94511.19;5063308;28;20196;-66
2022/08/15 07:15:44;;;;;;;1.67;1.57;;;;;;;25.86;45.88;94522.25;5040635;28;20199;-66
2022/08/15 07:18:24;;;;;;;2.60;1.87;;;;;;;25.56;46.30;94516.81;5019376;28;20200;-66
2022/08/15 07:21:05;;;;;;;2.73;2.37;;;;;;;26.10;45.83;94513.84;5051222;28;20242;-65
2022/08/15 07:24:07;;;;;;;2.70;1.73;;;;;;;26.38;46.12;94508.09;5035756;28;20200;-66
2022/08/15 07:27:05;;;;;;;11.97;1.90;;;;;;;26.27;45.40;94502.59;5059743;28;20232;-67
2022/08/15 07:29:43;;;;;;;2.30;2.00;;;;;;;26.36;45.48;94500.41;5048349;28;20224;-66
2022/08/15 07:32:43;;;;;;;3.20;1.97;;;;;;;26.94;44.09;94490.75;5064728;28;20200;-67
2022/08/15 07:35:13;;;;;;;1.30;1.30;;;;;;;27.17;43.99;94511.38;5057819;28;20205;-66
2022/08/15 07:37:48;;;;;;;3.67;2.67;;;;;;;26.81;44.67;94500.22;5070463;28;20208;-66
2022/08/15 07:40:30;;;;;;;1.63;1.43;;;;;;;27.07;43.78;94506.63;5061348;28;20230;-68
2022/08/15 07:43:25;;;;;;;1.13;0.97;;;;;;;27.65;43.19;94512.97;5069901;28;20236;-65
2022/08/15 07:46:14;;;;;;;4.43;3.00;;;;;;;27.20;44.02;94510.63;5057143;28;20227;-66
2022/08/15 07:49:17;;;;;;;1.27;1.27;;;;;;;27.32;43.43;94510.38;5071434;28;20665;-66
2022/08/15 07:51:59;;;;;;;3.33;2.73;;;;;;;27.75;42.99;94517.69;5060330;28;20325;-66
2022/08/15 07:54:55;;;;;;;1.97;1.87;;;;;;;28.10;42.73;94515.31;5070433;28;20202;-65
2022/08/15 07:57:36;;;;;;;1.50;1.40;;;;;;;29.26;40.32;94510.47;5051305;28;20199;-66
2022/08/15 08:00:26;;;;;;;5.47;2.57;;;;;;;29.14;40.55;94518.16;5085075;28;20287;-66
2022/08/15 08:03:24;;;;;;;1.00;0.93;;;;;;;28.25;40.71;94516.91;5071218;28;20200;-66
2022/08/15 08:06:08;;;;;;;2.63;1.63;;;;;;;27.96;41.31;94520.56;5055198;28;20251;-65
2022/08/15 08:09:54;;;;;;;2.17;2.07;;;;;;;27.74;42.38;94524.22;5054780;28;20218;-66
2022/08/15 08:12:34;;;;;;;0.70;0.70;;;;;;;28.46;42.11;94522.44;5089981;28;20201;-66
2022/08/15 08:15:55;;;;;;;1.30;1.13;;;;;;;28.28;41.71;94516.19;5058253;28;20245;-66
2022/08/15 08:19:03;;;;;;;1.63;1.53;;;;;;;28.41;41.50;94530.13;5057474;28;20732;-66
2022/08/15 08:21:47;;;;;;;1.13;1.13;;;;;;;29.08;41.09;94519.66;5065705;28;20227;-66
2022/08/15 08:24:47;;;;;;;1.87;1.23;;;;;;;29.18;40.10;94502.75;5050469;28;20234;-67
2022/08/15 08:27:20;;;;;;;1.57;1.33;;;;;;;29.00;40.75;94518.84;5050280;28;20224;-65
2022/08/15 08:29:57;;;;;;;2.07;1.97;;;;;;;28.72;40.56;94524.91;5059224;28;20220;-66
2022/08/15 08:32:27;;;;;;;1.90;1.80;;;;;;;28.61;41.36;94528.72;5062603;28;20246;-65
2022/08/15 08:35:43;;;;;;;1.57;1.47;;;;;;;28.44;41.18;94523.97;5039534;28;20193;-66
2022/08/15 08:38:52;;;;;;;4.73;2.30;;;;;;;28.51;41.68;94516.69;5056160;28;20275;-67
2022/08/15 08:41:46;;;;;;;2.00;1.80;;;;;;;27.95;41.44;94516.34;4924936;29;20220;-66
2022/08/15 08:44:19;;;;;;;2.13;1.77;;;;;;;28.60;41.23;94521.75;4953817;28;20302;-65
2022/08/15 08:46:49;;;;;;;0.90;0.90;;;;;;;29.20;40.42;94516.59;5033813;28;20788;-65
2022/08/15 08:49:20;;;;;;;1.63;1.30;;;;;;;29.03;41.04;94511.94;5071884;28;20188;-68
2022/08/15 08:52:05;;;;;;;2.57;2.37;;;;;;;29.04;40.86;94505.38;5037504;28;20223;-66
2022/08/15 08:54:57;;;;;;;0.97;0.87;;;;;;;29.56;40.71;94505.50;5065592;28;20257;-64
2022/08/15 08:57:43;;;;;;;2.23;2.03;;;;;;;29.22;39.31;94503.50;5045285;28;20689;-66
2022/08/15 09:00:24;;;;;;;1.37;1.27;;;;;;;29.80;38.69;94502.06;5068639;28;20295;-66
2022/08/15 09:03:11;;;;;;;0.70;0.70;;;;;;;29.60;39.96;94494.69;5061716;28;20226;-65
2022/08/15 09:05:49;;;;;;;2.50;1.33;;;;;;;29.43;38.30;94481.97;5071086;28;20215;-65
2022/08/15 09:08:24;;;;;;;1.70;1.60;;;;;;;29.96;37.56;94493.59;5046875;28;20197;-65
2022/08/15 09:11:02;;;;;;;2.20;1.40;;;;;;;30.07;36.96;94482.75;5043689;28;20200;-66
2022/08/15 09:13:33;;;;;;;2.47;1.93;;;;;;;30.59;36.58;94477.25;5044143;28;20210;-66
2022/08/15 09:16:23;;;;;;;2.00;1.90;;;;;;;30.91;36.85;94477.16;5044327;28;20615;-66
2022/08/15 09:19:11;;;;;;;1.60;1.30;;;;;;;30.13;37.27;94481.97;5070403;28;20203;-65
2022/08/15 09:21:42;;;;;;;1.23;1.13;;;;;;;30.50;36.17;94476.88;5060140;28;20558;-66
2022/08/15 09:24:12;;;;;;;3.80;2.53;;;;;;;30.09;35.81;94492.00;5068236;28;20629;-67
2022/08/15 09:27:15;;;;;;;1.23;1.20;;;;;;;30.46;35.92;94473.41;5058121;28;20695;-66
2022/08/15 09:29:50;;;;;;;3.57;2.37;;;;;;;30.96;35.30;94473.25;5045154;28;20200;-65
2022/08/15 09:32:34;;;;;;;2.87;2.00;;;;;;;31.40;35.35;94486.94;5070264;28;20282;-66
2022/08/15 09:35:31;;;;;;;1.27;1.17;;;;;;;30.94;36.03;94472.88;5070613;28;20631;-68
2022/08/15 09:37:58;;;;;;;1.80;1.70;;;;;;;31.00;35.67;94479.41;5046802;28;20232;-67
2022/08/15 09:40:45;;;;;;;2.10;1.67;;;;;;;31.34;35.38;94473.03;5052609;28;20509;-66
2022/08/15 09:43:44;;;;;;;2.17;1.97;;;;;;;31.34;35.26;94472.25;5039019;28;20204;-65
2022/08/15 09:46:48;;;;;;;2.10;1.40;;;;;;;31.17;35.39;94471.19;5059858;28;20593;-67
2022/08/15 09:49:15;;;;;;;1.37;1.27;;;;;;;31.06;35.16;94477.84;5056800;28;20204;-65
2022/08/15 09:51:58;;;;;;;0.83;0.83;;;;;;;31.49;35.17;94473.72;5035688;28;20254;-67
2022/08/15 09:54:41;;;;;;;1.37;1.20;;;;;;;30.01;36.30;94487.78;5064448;28;20260;-67
2022/08/15 09:57:22;;;;;;;5.23;2.53;;;;;;;31.35;35.14;94474.56;5042265;28;20198;-66
2022/08/15 09:59:59;;;;;;;1.07;0.90;;;;;;;31.33;34.89;94466.06;5070362;28;20204;-67
2022/08/15 10:02:37;;;;;;;0.60;0.60;;;;;;;31.38;34.79;94445.94;5058677;28;20208;-66
2022/08/15 10:05:39;;;;;;;1.63;1.50;;;;;;;31.50;34.89;94469.84;5056094;28;20204;-66
2022/08/15 10:08:08;;;;;;;1.30;1.23;;;;;;;31.57;34.36;94469.78;5048346;28;20231;-65
2022/08/15 10:10:52;;;;;;;1.67;1.43;;;;;;;31.84;34.26;94465.31;5065384;28;20196;-67
2022/08/15 10:13:28;;;;;;;1.80;1.70;;;;;;;31.44;33.88;94471.44;5070097;28;21019;-68
2022/08/15 10:15:57;;;;;;;1.63;1.53;;;;;;;30.95;34.79;94472.47;5055889;28;20196;-66
2022/08/15 10:18:26;;;;;;;2.90;1.93;;;;;;;31.19;34.49;94454.53;5069818;28;20191;-65
2022/08/15 10:21:16;;;;;;;1.93;1.67;;;;;;;31.30;34.41;94433.59;5047196;28;20201;-66
2022/08/15 10:23:52;;;;;;;2.43;1.53;;;;;;;30.72;34.87;94445.13;5043936;28;20201;-70
2022/08/15 10:26:36;;;;;;;3.00;1.23;;;;;;;31.88;33.97;94447.06;5050209;28;20228;-67
2022/08/15 10:29:11;;;;;;;1.17;0.90;;;;;;;31.99;33.70;94442.34;5048295;28;20317;-66
2022/08/15 10:31:53;;;;;;;1.27;1.17;;;;;;;32.21;33.89;94448.34;5048644;28;20191;-66
2022/08/15 10:34:55;;;;;;;1.13;1.07;;;;;;;31.56;33.38;94452.00;5069687;28;20196;-65
2022/08/15 10:37:56;;;;;;;5.87;1.93;;;;;;;31.66;32.95;94448.44;5067936;28;20199;-65
2022/08/15 10:40:36;;;;;;;1.23;1.13;;;;;;;32.43;32.53;94461.28;5061076;28;20202;-66
2022/08/15 10:43:39;;;;;;;1.23;1.23;;;;;;;32.78;31.95;94433.75;5063665;28;20224;-65
2022/08/15 10:46:27;;;;;;;1.47;1.37;;;;;;;31.57;33.29;94453.53;5045265;28;20220;-66
2022/08/15 10:49:25;;;;;;;1.93;1.17;;;;;;;32.40;32.53;94451.25;5051964;28;20203;-65
2022/08/15 10:52:16;;;;;;;0.40;0.40;;;;;;;33.09;31.20;94431.81;5043047;28;20562;-66
2022/08/15 10:55:12;;;;;;;1.07;1.07;;;;;;;33.68;30.69;94434.81;5053974;28;20615;-66
2022/08/15 10:57:55;;;;;;;1.40;1.30;;;;;;;33.64;31.25;94439.53;5039150;28;20675;-66
2022/08/15 11:00:29;;;;;;;2.00;1.30;;;;;;;33.58;31.32;94441.19;5071210;28;20947;-65
2022/08/15 11:03:35;;;;;;;1.57;1.17;;;;;;;33.04;32.37;94428.78;5047444;28;20201;-64
2022/08/15 11:06:23;;;;;;;1.47;1.37;;;;;;;32.35;31.93;94431.94;5055379;28;20207;-65
2022/08/15 11:09:17;;;;;;;1.73;0.87;;;;;;;33.04;31.87;94428.78;5070091;28;20231;-66
2022/08/15 11:11:56;;;;;;;1.83;1.73;;;;;;;33.37;31.19;94431.41;5053076;28;20200;-66
2022/08/15 11:14:30;;;;;;;1.33;1.23;;;;;;;33.03;31.16;94421.81;5060331;28;20187;-65
2022/08/15 11:17:00;;;;;;;0.87;0.80;;;;;;;33.65;31.36;94424.75;5073485;28;20295;-65
2022/08/15 11:19:35;;;;;;;0.77;0.77;;;;;;;33.42;30.38;94433.66;5046352;28;20286;-66
2022/08/15 11:22:37;;;;;;;0.97;0.97;;;;;;;33.83;29.10;94419.81;5068621;28;20204;-65
2022/08/15 11:25:17;;;;;;;1.73;1.17;;;;;;;33.63;30.02;94417.03;5056272;28;20195;-66
2022/08/15 11:28:01;;;;;;;1.20;1.10;;;;;;;33.27;29.93;94423.38;5049477;28;20267;-66
2022/08/15 11:30:58;;;;;;;1.77;1.63;;;;;;;32.87;30.52;94413.47;5063246;28;20257;-64
2022/08/15 11:33:40;;;;;;;1.73;1.63;;;;;;;33.40;29.94;94416.22;5062825;28;20625;-66
2022/08/15 11:36:18;;;;;;;1.07;1.07;;;;;;;33.96;29.23;94407.16;5055260;28;20204;-66
2022/08/15 11:38:55;;;;;;;1.57;1.20;;;;;;;33.78;29.71;94403.97;5041630;28;20200;-65
2022/08/15 11:41:47;;;;;;;0.70;0.70;;;;;;;34.02;29.13;94400.06;5032917;28;20231;-65
2022/08/15 11:44:24;;;;;;;0.90;0.80;;;;;;;33.70;28.84;94405.28;5060891;28;20199;-66
2022/08/15 11:46:52;;;;;;;0.63;0.63;;;;;;;33.77;29.17;94394.28;5049793;28;20226;-66
2022/08/15 11:49:33;;;;;;;2.00;1.30;;;;;;;33.87;29.19;94396.03;5058562;28;20291;-66
2022/08/15 11:52:06;;;;;;;1.40;1.30;;;;;;;34.06;28.46;94408.94;5048142;28;20945;-66
2022/08/15 11:55:13;;;;;;;2.03;1.57;;;;;;;34.67;28.33;94409.34;5071726;28;20191;-66
2022/08/15 11:57:53;;;;;;;1.90;1.80;;;;;;;34.55;27.08;94399.84;5043016;28;20205;-66
2022/08/15 12:00:24;;;;;;;1.20;1.13;;;;;;;34.95;27.52;94410.69;5055645;28;20261;-66
2022/08/15 12:02:55;;;;;;;1.10;1.10;;;;;;;34.33;28.73;94417.75;5072614;28;20634;-65
2022/08/15 12:05:40;;;;;;;1.10;0.93;;;;;;;33.89;28.42;94407.28;5072497;28;20192;-66
2022/08/15 12:08:29;;;;;;;1.07;0.83;;;;;;;33.90;28.45;94406.09;5072612;28;20203;-65
2022/08/15 12:11:12;;;;;;;8.03;1.63;;;;;;;34.58;28.20;94403.69;5044394;28;20195;-65
2022/08/15 12:13:59;;;;;;;1.07;0.97;;;;;;;33.92;27.72;94401.03;5043058;28;20204;-66
2022/08/15 12:16:31;;;;;;;1.93;1.10;;;;;;;34.34;27.42;94394.78;5062005;28;20203;-66
2022/08/15 12:19:22;;;;;;;0.83;0.83;;;;;;;33.70;28.19;94391.69;5044660;28;20747;-65
2022/08/15 12:21:51;;;;;;;0.83;0.83;;;;;;;35.22;27.37;94392.97;5047813;28;20722;-65
2022/08/15 12:24:44;;;;;;;0.70;0.70;;;;;;;35.32;26.79;94391.19;5031894;28;20729;-66
2022/08/15 12:27:13;;;;;;;0.83;0.83;;;;;;;35.15;27.36;94386.91;5045533;28;20311;-65
2022/08/15 12:29:44;;;;;;;1.30;0.83;;;;;;;35.62;25.93;94388.16;5058980;28;20187;-64
2022/08/15 12:32:19;;;;;;;2.73;1.63;;;;;;;35.59;26.17;94378.09;5071864;28;20210;-65
2022/08/15 12:35:05;;;;;;;0.50;0.50;;;;;;;35.63;25.82;94378.78;5061691;28;20663;-66
2022/08/15 12:37:50;;;;;;;2.37;1.90;;;;;;;35.52;25.97;94379.03;5061813;28;20694;-66
2022/08/15 12:40:20;;;;;;;0.63;0.63;;;;;;;35.83;25.64;94382.16;5042283;28;20224;-64
2022/08/15 12:43:07;;;;;;;0.50;0.50;;;;;;;35.45;25.71;94378.44;5045981;28;20332;-65
2022/08/15 12:45:35;;;;;;;0.93;0.87;;;;;;;35.59;24.50;94372.66;5055071;28;20200;-66
2022/08/15 12:48:19;;;;;;;0.57;0.57;;;;;;;36.20;24.36;94367.97;5042066;28;20302;-65